sensor_id;sensor_type;location;lat;lon;timestamp;pressure;altitude;pressure_sealevel;temperature;humidity
65359;BME280;52491;45.900;6.346;2023-02-16T00:01:30;94856.28;;;23.94;21.82
65359;BME280;52491;45.900;6.346;2023-02-16T00:03:57;94848.53;;;23.93;21.76
65359;BME280;52491;45.900;6.346;2023-02-16T00:06:24;94852.00;;;23.93;21.98
65359;BME280;52491;45.900;6.346;2023-02-16T00:08:52;94857.31;;;23.93;21.75
65359;BME280;52491;45.900;6.346;2023-02-16T00:11:31;94858.59;;;23.90;21.84
65359;BME280;52491;45.900;6.346;2023-02-16T00:14:17;94858.03;;;23.88;21.89
65359;BME280;52491;45.900;6.346;2023-02-16T00:16:43;94858.03;;;23.88;21.84
65359;BME280;52491;45.900;6.346;2023-02-16T00:19:16;94858.03;;;23.88;21.90
65359;BME280;52491;45.900;6.346;2023-02-16T00:21:42;94865.19;;;23.88;21.78
65359;BME280;52491;45.900;6.346;2023-02-16T00:24:08;94863.34;;;23.88;21.83
65359;BME280;52491;45.900;6.346;2023-02-16T00:26:34;94868.13;;;23.86;21.70
65359;BME280;52491;45.900;6.346;2023-02-16T00:29:00;94861.75;;;23.87;21.65
65359;BME280;52491;45.900;6.346;2023-02-16T00:31:27;94859.88;;;23.88;21.73
65359;BME280;52491;45.900;6.346;2023-02-16T00:33:57;94859.28;;;23.86;21.82
65359;BME280;52491;45.900;6.346;2023-02-16T00:36:24;94855.03;;;23.85;21.68
65359;BME280;52491;45.900;6.346;2023-02-16T00:38:50;94855.03;;;23.85;21.68
65359;BME280;52491;45.900;6.346;2023-02-16T00:41:18;94856.88;;;23.84;21.68
65359;BME280;52491;45.900;6.346;2023-02-16T00:44:05;94859.78;;;23.83;21.91
65359;BME280;52491;45.900;6.346;2023-02-16T00:46:34;94854.69;;;23.81;21.78
65359;BME280;52491;45.900;6.346;2023-02-16T00:49:00;94858.97;;;23.82;21.51
65359;BME280;52491;45.900;6.346;2023-02-16T00:51:26;94861.63;;;23.82;21.55
65359;BME280;52491;45.900;6.346;2023-02-16T00:53:51;94861.88;;;23.81;21.52
65359;BME280;52491;45.900;6.346;2023-02-16T00:56:18;94867.19;;;23.81;21.50
65359;BME280;52491;45.900;6.346;2023-02-16T00:58:45;94868.00;;;23.81;21.62
65359;BME280;52491;45.900;6.346;2023-02-16T01:01:13;94869.03;;;23.80;21.33
65359;BME280;52491;45.900;6.346;2023-02-16T01:03:40;94866.38;;;23.80;21.69
65359;BME280;52491;45.900;6.346;2023-02-16T01:06:06;94865.81;;;23.78;21.50
65359;BME280;52491;45.900;6.346;2023-02-16T01:08:53;94863.16;;;23.78;21.67
65359;BME280;52491;45.900;6.346;2023-02-16T01:11:38;94863.38;;;23.77;21.40
65359;BME280;52491;45.900;6.346;2023-02-16T01:14:04;94862.31;;;23.78;21.58
65359;BME280;52491;45.900;6.346;2023-02-16T01:16:38;94861.50;;;23.77;21.82
65359;BME280;52491;45.900;6.346;2023-02-16T01:19:06;94867.91;;;23.76;21.50
65359;BME280;52491;45.900;6.346;2023-02-16T01:21:32;94870.56;;;23.76;21.69
65359;BME280;52491;45.900;6.346;2023-02-16T01:23:57;94868.69;;;23.77;21.50
65359;BME280;52491;45.900;6.346;2023-02-16T01:26:23;94867.91;;;23.76;21.56
65359;BME280;52491;45.900;6.346;2023-02-16T01:28:49;94871.63;;;23.75;21.56
65359;BME280;52491;45.900;6.346;2023-02-16T01:31:16;94868.94;;;23.75;21.36
65359;BME280;52491;45.900;6.346;2023-02-16T01:33:42;94868.13;;;23.75;21.57
65359;BME280;52491;45.900;6.346;2023-02-16T01:36:30;94858.31;;;23.75;21.43
65359;BME280;52491;45.900;6.346;2023-02-16T01:38:57;94872.63;;;23.74;21.42
65359;BME280;52491;45.900;6.346;2023-02-16T01:44:04;94858.53;;;23.74;21.47
65359;BME280;52491;45.900;6.346;2023-02-16T01:46:50;94863.63;;;23.75;21.38
65359;BME280;52491;45.900;6.346;2023-02-16T01:49:18;94859.31;;;23.74;21.42
65359;BME280;52491;45.900;6.346;2023-02-16T01:51:50;94855.06;;;23.73;21.53
65359;BME280;52491;45.900;6.346;2023-02-16T01:57:49;94854.25;;;23.73;21.33
65359;BME280;52491;45.900;6.346;2023-02-16T02:02:19;94849.72;;;23.73;21.48
65359;BME280;52491;45.900;6.346;2023-02-16T02:04:53;94848.94;;;23.73;21.43
65359;BME280;52491;45.900;6.346;2023-02-16T02:07:55;94842.19;;;23.70;21.38
65359;BME280;52491;45.900;6.346;2023-02-16T02:11:11;94844.84;;;23.70;21.42
65359;BME280;52491;45.900;6.346;2023-02-16T02:16:20;94842.41;;;23.68;21.25
65359;BME280;52491;45.900;6.346;2023-02-16T02:18:47;94844.03;;;23.70;21.53
65359;BME280;52491;45.900;6.346;2023-02-16T02:24:27;94839.75;;;23.68;21.48
65359;BME280;52491;45.900;6.346;2023-02-16T02:27:15;94837.06;;;23.68;21.41
65359;BME280;52491;45.900;6.346;2023-02-16T02:41:17;94821.34;;;23.67;21.41
65359;BME280;52491;45.900;6.346;2023-02-16T02:43:59;94818.69;;;23.67;21.45
65359;BME280;52491;45.900;6.346;2023-02-16T02:46:32;94816.84;;;23.67;21.23
65359;BME280;52491;45.900;6.346;2023-02-16T02:48:58;94820.31;;;23.68;21.56
65359;BME280;52491;45.900;6.346;2023-02-16T02:51:24;94815.78;;;23.68;21.42
65359;BME280;52491;45.900;6.346;2023-02-16T02:56:57;94814.97;;;23.68;21.25
65359;BME280;52491;45.900;6.346;2023-02-16T02:59:46;94813.38;;;23.67;21.28
65359;BME280;52491;45.900;6.346;2023-02-16T03:02:33;94814.97;;;23.68;21.37
65359;BME280;52491;45.900;6.346;2023-02-16T03:05:02;94821.91;;;23.69;21.39
65359;BME280;52491;45.900;6.346;2023-02-16T03:07:32;94821.09;;;23.68;21.25
65359;BME280;52491;45.900;6.346;2023-02-16T03:10:26;94809.44;;;23.70;21.37
65359;BME280;52491;45.900;6.346;2023-02-16T03:13:17;94814.97;;;23.68;21.20
65359;BME280;52491;45.900;6.346;2023-02-16T03:15:47;94822.97;;;23.68;21.15
65359;BME280;52491;45.900;6.346;2023-02-16T03:18:15;94818.69;;;23.67;21.37
65359;BME280;52491;45.900;6.346;2023-02-16T03:21:01;94822.97;;;23.68;21.28
65359;BME280;52491;45.900;6.346;2023-02-16T03:23:47;94822.97;;;23.68;21.25
65359;BME280;52491;45.900;6.346;2023-02-16T03:26:34;94826.69;;;23.67;21.42
65359;BME280;52491;45.900;6.346;2023-02-16T03:29:19;94822.38;;;23.66;21.22
65359;BME280;52491;45.900;6.346;2023-02-16T03:31:48;94821.56;;;23.65;20.95
65359;BME280;52491;45.900;6.346;2023-02-16T03:34:16;94824.56;;;23.69;21.08
65359;BME280;52491;45.900;6.346;2023-02-16T03:36:44;94823.53;;;23.70;21.19
65359;BME280;52491;45.900;6.346;2023-02-16T03:39:12;94822.75;;;23.70;21.13
65359;BME280;52491;45.900;6.346;2023-02-16T03:41:41;94816.13;;;23.72;21.14
65359;BME280;52491;45.900;6.346;2023-02-16T03:44:07;94818.81;;;23.72;21.07
65359;BME280;52491;45.900;6.346;2023-02-16T03:46:33;94824.13;;;23.72;21.20
65359;BME280;52491;45.900;6.346;2023-02-16T03:48:59;94826.22;;;23.70;21.05
65359;BME280;52491;45.900;6.346;2023-02-16T03:51:25;94823.53;;;23.70;21.24
65359;BME280;52491;45.900;6.346;2023-02-16T03:53:51;94824.38;;;23.71;20.97
65359;BME280;52491;45.900;6.346;2023-02-16T03:56:17;94827.63;;;23.73;21.09
65359;BME280;52491;45.900;6.346;2023-02-16T03:58:42;94830.03;;;23.74;21.05
65359;BME280;52491;45.900;6.346;2023-02-16T04:01:08;94826.56;;;23.74;21.08
65359;BME280;52491;45.900;6.346;2023-02-16T04:03:34;94828.19;;;23.75;21.08
65359;BME280;52491;45.900;6.346;2023-02-16T04:05:59;94825.28;;;23.76;21.13
65359;BME280;52491;45.900;6.346;2023-02-16T04:08:25;94830.63;;;23.76;21.01
65359;BME280;52491;45.900;6.346;2023-02-16T04:10:51;94828.75;;;23.77;21.08
65359;BME280;52491;45.900;6.346;2023-02-16T04:13:18;94823.44;;;23.77;21.03
65359;BME280;52491;45.900;6.346;2023-02-16T04:15:44;94823.44;;;23.77;21.07
65359;BME280;52491;45.900;6.346;2023-02-16T04:18:10;94828.19;;;23.75;20.99
65359;BME280;52491;45.900;6.346;2023-02-16T04:20:36;94831.69;;;23.75;20.98
65359;BME280;52491;45.900;6.346;2023-02-16T04:23:02;94830.63;;;23.76;20.92
65359;BME280;52491;45.900;6.346;2023-02-16T04:25:28;94832.22;;;23.77;20.95
65359;BME280;52491;45.900;6.346;2023-02-16T04:27:55;94824.25;;;23.77;20.85
65359;BME280;52491;45.900;6.346;2023-02-16T04:30:23;94826.91;;;23.77;20.89
65359;BME280;52491;45.900;6.346;2023-02-16T04:32:49;94824.25;;;23.77;20.87
65359;BME280;52491;45.900;6.346;2023-02-16T04:35:16;94825.88;;;23.78;20.96
65359;BME280;52491;45.900;6.346;2023-02-16T04:37:42;94820.78;;;23.77;20.84
65359;BME280;52491;45.900;6.346;2023-02-16T04:40:09;94823.44;;;23.77;20.96
65359;BME280;52491;45.900;6.346;2023-02-16T04:42:39;94823.22;;;23.78;20.83
65359;BME280;52491;45.900;6.346;2023-02-16T04:45:05;94825.88;;;23.78;20.79
65359;BME280;52491;45.900;6.346;2023-02-16T04:47:31;94825.03;;;23.78;20.92
65359;BME280;52491;45.900;6.346;2023-02-16T04:49:56;94818.91;;;23.77;20.81
65359;BME280;52491;45.900;6.346;2023-02-16T04:52:22;94827.47;;;23.79;21.06
65359;BME280;52491;45.900;6.346;2023-02-16T04:54:47;94822.16;;;23.79;20.63
65359;BME280;52491;45.900;6.346;2023-02-16T04:57:14;94829.09;;;23.80;20.79
65359;BME280;52491;45.900;6.346;2023-02-16T04:59:40;94829.09;;;23.80;20.84
65359;BME280;52491;45.900;6.346;2023-02-16T05:02:05;94828.28;;;23.80;20.81
65359;BME280;52491;45.900;6.346;2023-02-16T05:04:31;94826.69;;;23.79;20.85
65359;BME280;52491;45.900;6.346;2023-02-16T05:06:57;94823.22;;;23.78;20.80
65359;BME280;52491;45.900;6.346;2023-02-16T05:09:23;94832.81;;;23.79;20.72
65359;BME280;52491;45.900;6.346;2023-02-16T05:11:48;94823.22;;;23.78;20.76
65359;BME280;52491;45.900;6.346;2023-02-16T05:14:34;94825.41;;;23.81;20.84
65359;BME280;52491;45.900;6.346;2023-02-16T05:19:41;94833.63;;;23.80;20.98
65359;BME280;52491;45.900;6.346;2023-02-16T05:22:09;94818.09;;;23.77;20.80
65359;BME280;52491;45.900;6.346;2023-02-16T05:24:35;94827.25;;;23.81;20.75
65359;BME280;52491;45.900;6.346;2023-02-16T05:27:02;94829.94;;;23.81;20.59
65359;BME280;52491;45.900;6.346;2023-02-16T05:29:28;94828.06;;;23.81;20.71
65359;BME280;52491;45.900;6.346;2023-02-16T05:31:54;94830.72;;;23.81;20.75
65359;BME280;52491;45.900;6.346;2023-02-16T05:34:19;94836.06;;;23.81;20.69
65359;BME280;52491;45.900;6.346;2023-02-16T05:36:45;94831.53;;;23.82;20.61
65359;BME280;52491;45.900;6.346;2023-02-16T05:39:11;94835.00;;;23.82;20.64
65359;BME280;52491;45.900;6.346;2023-02-16T05:41:36;94832.34;;;23.82;20.72
65359;BME280;52491;45.900;6.346;2023-02-16T05:44:03;94828.63;;;23.83;20.58
65359;BME280;52491;45.900;6.346;2023-02-16T05:46:31;94831.06;;;23.85;20.87
65359;BME280;52491;45.900;6.346;2023-02-16T05:48:58;94830.25;;;23.84;20.60
65359;BME280;52491;45.900;6.346;2023-02-16T05:51:24;94831.88;;;23.85;20.66
65359;BME280;52491;45.900;6.346;2023-02-16T05:53:50;94833.72;;;23.85;20.49
65359;BME280;52491;45.900;6.346;2023-02-16T05:56:16;94830.00;;;23.86;20.73
65359;BME280;52491;45.900;6.346;2023-02-16T05:58:42;94826.53;;;23.85;20.65
65359;BME280;52491;45.900;6.346;2023-02-16T06:01:08;94828.16;;;23.86;20.62
65359;BME280;52491;45.900;6.346;2023-02-16T06:03:34;94818.56;;;23.85;20.50
65359;BME280;52491;45.900;6.346;2023-02-16T06:06:01;94823.06;;;23.85;20.50
65359;BME280;52491;45.900;6.346;2023-02-16T06:08:27;94827.34;;;23.86;20.67
65359;BME280;52491;45.900;6.346;2023-02-16T06:10:53;94823.88;;;23.85;20.56
65359;BME280;52491;45.900;6.346;2023-02-16T06:13:20;94830.84;;;23.86;20.50
65359;BME280;52491;45.900;6.346;2023-02-16T06:15:49;94829.78;;;23.87;20.17
65359;BME280;52491;45.900;6.346;2023-02-16T06:18:15;94827.13;;;23.87;20.54
65359;BME280;52491;45.900;6.346;2023-02-16T06:20:41;94832.44;;;23.87;20.44
65359;BME280;52491;45.900;6.346;2023-02-16T06:23:09;94830.38;;;23.89;20.56
65359;BME280;52491;45.900;6.346;2023-02-16T06:25:35;94842.03;;;23.88;20.60
65359;BME280;52491;45.900;6.346;2023-02-16T06:28:01;94841.00;;;23.89;20.54
65359;BME280;52491;45.900;6.346;2023-02-16T06:30:26;94836.72;;;23.88;20.56
65359;BME280;52491;45.900;6.346;2023-02-16T06:32:52;94840.22;;;23.89;20.40
65359;BME280;52491;45.900;6.346;2023-02-16T06:35:18;94847.63;;;23.87;20.27
65359;BME280;52491;45.900;6.346;2023-02-16T06:37:44;94844.69;;;23.88;20.43
65359;BME280;52491;45.900;6.346;2023-02-16T06:40:10;94843.09;;;23.87;20.52
65359;BME280;52491;45.900;6.346;2023-02-16T06:42:39;94843.91;;;23.88;20.51
65359;BME280;52491;45.900;6.346;2023-02-16T06:45:05;94851.09;;;23.87;20.34
65359;BME280;52491;45.900;6.346;2023-02-16T06:47:30;94852.94;;;23.87;20.62
65359;BME280;52491;45.900;6.346;2023-02-16T06:49:56;94861.75;;;23.87;20.43
65359;BME280;52491;45.900;6.346;2023-02-16T06:52:22;94866.00;;;23.88;20.37
65359;BME280;52491;45.900;6.346;2023-02-16T06:54:47;94874.25;;;23.87;20.30
65359;BME280;52491;45.900;6.346;2023-02-16T06:57:13;94881.75;;;23.90;20.53
65359;BME280;52491;45.900;6.346;2023-02-16T06:59:38;94868.66;;;23.88;20.51
65359;BME280;52491;45.900;6.346;2023-02-16T07:02:04;94878.31;;;23.89;20.44
65359;BME280;52491;45.900;6.346;2023-02-16T07:04:30;94871.34;;;23.88;20.48
65359;BME280;52491;45.900;6.346;2023-02-16T07:06:55;94879.31;;;23.88;20.42
65359;BME280;52491;45.900;6.346;2023-02-16T07:09:21;94882.00;;;23.88;20.37
65359;BME280;52491;45.900;6.346;2023-02-16T07:11:47;94883.63;;;23.89;20.27
65359;BME280;52491;45.900;6.346;2023-02-16T07:14:13;94882.81;;;23.89;20.49
65359;BME280;52491;45.900;6.346;2023-02-16T07:16:38;94885.47;;;23.89;20.44
65359;BME280;52491;45.900;6.346;2023-02-16T07:19:04;94884.66;;;23.88;20.35
65359;BME280;52491;45.900;6.346;2023-02-16T07:21:31;94885.47;;;23.89;20.37
65359;BME280;52491;45.900;6.346;2023-02-16T07:23:56;94888.16;;;23.89;20.46
65359;BME280;52491;45.900;6.346;2023-02-16T07:26:22;94882.56;;;23.90;20.25
65359;BME280;52491;45.900;6.346;2023-02-16T07:28:47;94882.81;;;23.89;20.34
65359;BME280;52491;45.900;6.346;2023-02-16T07:31:15;94876.19;;;23.92;20.26
65359;BME280;52491;45.900;6.346;2023-02-16T07:33:41;94877.25;;;23.90;20.23
65359;BME280;52491;45.900;6.346;2023-02-16T07:36:08;94877.25;;;23.90;20.15
65359;BME280;52491;45.900;6.346;2023-02-16T07:38:34;94878.06;;;23.91;20.44
65359;BME280;52491;45.900;6.346;2023-02-16T07:41:00;94885.22;;;23.90;20.23
65359;BME280;52491;45.900;6.346;2023-02-16T07:43:26;94886.84;;;23.92;20.33
65359;BME280;52491;45.900;6.346;2023-02-16T07:45:52;94889.50;;;23.92;20.44
65359;BME280;52491;45.900;6.346;2023-02-16T07:48:18;94887.69;;;23.92;20.47
65359;BME280;52491;45.900;6.346;2023-02-16T07:50:43;94893.81;;;23.93;20.32
65359;BME280;52491;45.900;6.346;2023-02-16T07:53:09;94889.50;;;23.92;20.44
65359;BME280;52491;45.900;6.346;2023-02-16T07:55:39;94882.09;;;23.94;20.26
65359;BME280;52491;45.900;6.346;2023-02-16T07:58:05;94882.91;;;23.94;20.09
65359;BME280;52491;45.900;6.346;2023-02-16T08:00:31;94890.09;;;23.94;20.03
65359;BME280;52491;45.900;6.346;2023-02-16T08:02:56;94880.72;;;23.91;20.29
65359;BME280;52491;45.900;6.346;2023-02-16T08:05:22;94881.28;;;23.93;20.29
65359;BME280;52491;45.900;6.346;2023-02-16T08:07:47;94877.03;;;23.92;20.09
65359;BME280;52491;45.900;6.346;2023-02-16T08:10:13;94880.50;;;23.93;20.34
65359;BME280;52491;45.900;6.346;2023-02-16T08:12:40;94878.63;;;23.93;20.36
65359;BME280;52491;45.900;6.346;2023-02-16T08:15:06;94880.50;;;23.93;20.09
65359;BME280;52491;45.900;6.346;2023-02-16T08:17:33;94878.41;;;23.95;20.34
65359;BME280;52491;45.900;6.346;2023-02-16T08:19:58;94882.09;;;23.94;20.37
65359;BME280;52491;45.900;6.346;2023-02-16T08:22:24;94875.16;;;23.93;20.32
65359;BME280;52491;45.900;6.346;2023-02-16T08:24:50;94880.50;;;23.93;20.28
65359;BME280;52491;45.900;6.346;2023-02-16T08:27:15;94883.16;;;23.93;20.19
65359;BME280;52491;45.900;6.346;2023-02-16T08:29:41;94882.34;;;23.92;20.16
65359;BME280;52491;45.900;6.346;2023-02-16T08:32:10;94888.22;;;23.94;20.26
65359;BME280;52491;45.900;6.346;2023-02-16T08:34:37;94889.50;;;23.92;20.38
65359;BME280;52491;45.900;6.346;2023-02-16T08:37:03;94892.16;;;23.92;20.31
65359;BME280;52491;45.900;6.346;2023-02-16T08:39:31;94892.16;;;23.92;20.25
65359;BME280;52491;45.900;6.346;2023-02-16T08:41:58;94885.00;;;23.92;20.37
65359;BME280;52491;45.900;6.346;2023-02-16T08:44:24;94885.81;;;23.93;20.39
65359;BME280;52491;45.900;6.346;2023-02-16T08:46:53;94882.56;;;23.90;20.21
65359;BME280;52491;45.900;6.346;2023-02-16T08:49:21;94881.50;;;23.92;20.14
65359;BME280;52491;45.900;6.346;2023-02-16T08:51:53;94877.03;;;23.92;20.29
65359;BME280;52491;45.900;6.346;2023-02-16T08:54:21;94880.50;;;23.93;20.32
65359;BME280;52491;45.900;6.346;2023-02-16T08:56:48;94875.97;;;23.93;20.22
65359;BME280;52491;45.900;6.346;2023-02-16T08:59:16;94885.81;;;23.93;20.19
65359;BME280;52491;45.900;6.346;2023-02-16T09:01:42;94880.50;;;23.93;20.19
65359;BME280;52491;45.900;6.346;2023-02-16T09:04:09;94878.84;;;23.92;20.26
65359;BME280;52491;45.900;6.346;2023-02-16T09:06:42;94885.81;;;23.93;20.32
65359;BME280;52491;45.900;6.346;2023-02-16T09:09:09;94882.09;;;23.94;20.38
65359;BME280;52491;45.900;6.346;2023-02-16T09:11:35;94882.09;;;23.94;20.38
65359;BME280;52491;45.900;6.346;2023-02-16T09:14:01;94886.16;;;23.96;20.22
65359;BME280;52491;45.900;6.346;2023-02-16T09:16:28;94886.16;;;23.96;20.55
65359;BME280;52491;45.900;6.346;2023-02-16T09:18:58;94889.06;;;23.95;20.44
65359;BME280;52491;45.900;6.346;2023-02-16T09:21:26;94885.34;;;23.96;20.50
65359;BME280;52491;45.900;6.346;2023-02-16T09:23:54;94885.34;;;23.96;20.31
65359;BME280;52491;45.900;6.346;2023-02-16T09:26:22;94885.94;;;23.98;20.55
65359;BME280;52491;45.900;6.346;2023-02-16T09:28:48;94885.94;;;23.98;20.40
65359;BME280;52491;45.900;6.346;2023-02-16T09:31:25;94888.34;;;23.99;20.37
65359;BME280;52491;45.900;6.346;2023-02-16T09:33:59;94887.53;;;23.99;20.63
65359;BME280;52491;45.900;6.346;2023-02-16T09:36:25;94887.53;;;23.99;20.57
65359;BME280;52491;45.900;6.346;2023-02-16T09:38:52;94892.63;;;24.00;20.59
65359;BME280;52491;45.900;6.346;2023-02-16T09:41:47;94894.25;;;24.01;20.64
65359;BME280;52491;45.900;6.346;2023-02-16T09:44:30;94895.31;;;24.00;20.76
65359;BME280;52491;45.900;6.346;2023-02-16T09:47:03;94896.66;;;24.03;20.32
65359;BME280;52491;45.900;6.346;2023-02-16T09:49:41;94889.72;;;24.02;20.98
65359;BME280;52491;45.900;6.346;2023-02-16T09:55:01;94888.13;;;24.01;20.76
65359;BME280;52491;45.900;6.346;2023-02-16T10:08:42;94886.25;;;24.01;21.07
65359;BME280;52491;45.900;6.346;2023-02-16T10:14:10;94879.66;;;24.04;21.02
65359;BME280;52491;45.900;6.346;2023-02-16T10:16:51;94878.00;;;24.03;20.91
65359;BME280;52491;45.900;6.346;2023-02-16T10:19:22;94885.78;;;24.04;21.26
65359;BME280;52491;45.900;6.346;2023-02-16T10:21:54;94886.38;;;24.06;21.14
65359;BME280;52491;45.900;6.346;2023-02-16T10:24:24;94879.19;;;24.07;21.27
65359;BME280;52491;45.900;6.346;2023-02-16T10:27:03;94883.44;;;24.08;21.40
65359;BME280;52491;45.900;6.346;2023-02-16T10:29:32;94881.59;;;24.08;20.95
65359;BME280;52491;45.900;6.346;2023-02-16T10:32:27;94884.84;;;24.10;21.33
65359;BME280;52491;45.900;6.346;2023-02-16T10:35:05;94883.22;;;24.09;21.18
65359;BME280;52491;45.900;6.346;2023-02-16T10:37:55;94876.63;;;24.12;21.06
65359;BME280;52491;45.900;6.346;2023-02-16T10:43:20;94879.28;;;24.12;21.27
65359;BME280;52491;45.900;6.346;2023-02-16T10:45:52;94873.97;;;24.12;21.34
65359;BME280;52491;45.900;6.346;2023-02-16T10:48:20;94878.81;;;24.15;21.28
65359;BME280;52491;45.900;6.346;2023-02-16T10:51:13;94865.81;;;24.19;21.37
65359;BME280;52491;45.900;6.346;2023-02-16T10:53:52;94867.69;;;24.18;21.26
65359;BME280;52491;45.900;6.346;2023-02-16T10:59:13;94870.09;;;24.20;21.11
65359;BME280;52491;45.900;6.346;2023-02-16T11:01:47;94863.47;;;24.22;21.24
65359;BME280;52491;45.900;6.346;2023-02-16T11:04:39;94871.25;;;24.24;21.38
65359;BME280;52491;45.900;6.346;2023-02-16T11:07:10;94860.59;;;24.24;21.31
65359;BME280;52491;45.900;6.346;2023-02-16T11:09:36;94864.88;;;24.25;21.47
65359;BME280;52491;45.900;6.346;2023-02-16T11:14:53;94856.66;;;24.26;21.28
65359;BME280;52491;45.900;6.346;2023-02-16T11:17:21;94858.03;;;24.29;21.25
65359;BME280;52491;45.900;6.346;2023-02-16T11:22:36;94846.09;;;24.31;21.50
65359;BME280;52491;45.900;6.346;2023-02-16T11:25:31;94846.09;;;24.31;21.56
65359;BME280;52491;45.900;6.346;2023-02-16T11:27:59;94843.41;;;24.31;21.50
65359;BME280;52491;45.900;6.346;2023-02-16T11:33:04;94842.13;;;24.34;21.58
65359;BME280;52491;45.900;6.346;2023-02-16T11:35:40;94836.56;;;24.35;21.54
65359;BME280;52491;45.900;6.346;2023-02-16T11:38:20;94836.56;;;24.35;21.27
65359;BME280;52491;45.900;6.346;2023-02-16T11:40:50;94835.50;;;24.37;21.27
65359;BME280;52491;45.900;6.346;2023-02-16T11:43:17;94834.22;;;24.39;21.33
65359;BME280;52491;45.900;6.346;2023-02-16T11:45:55;94824.94;;;24.42;21.71
65359;BME280;52491;45.900;6.346;2023-02-16T11:48:27;94826.56;;;24.43;21.47
65359;BME280;52491;45.900;6.346;2023-02-16T11:50:57;94823.91;;;24.43;21.48
65359;BME280;52491;45.900;6.346;2023-02-16T11:53:28;94822.06;;;24.43;21.27
65359;BME280;52491;45.900;6.346;2023-02-16T11:56:22;94821.59;;;24.46;21.54
65359;BME280;52491;45.900;6.346;2023-02-16T11:59:11;94818.13;;;24.46;21.42
65359;BME280;52491;45.900;6.346;2023-02-16T12:01:52;94812.53;;;24.47;21.57
65359;BME280;52491;45.900;6.346;2023-02-16T12:04:38;94808.03;;;24.48;21.37
65359;BME280;52491;45.900;6.346;2023-02-16T12:07:19;94807.78;;;24.49;21.37
65359;BME280;52491;45.900;6.346;2023-02-16T12:10:06;94800.56;;;24.50;21.62
65359;BME280;52491;45.900;6.346;2023-02-16T12:12:56;94796.88;;;24.51;21.40
65359;BME280;52491;45.900;6.346;2023-02-16T12:15:45;94791.56;;;24.51;21.46
65359;BME280;52491;45.900;6.346;2023-02-16T12:18:29;94793.16;;;24.52;21.73
65359;BME280;52491;45.900;6.346;2023-02-16T12:21:16;94789.44;;;24.53;21.46
65359;BME280;52491;45.900;6.346;2023-02-16T12:24:27;94782.28;;;24.53;21.24
65359;BME280;52491;45.900;6.346;2023-02-16T12:32:43;94784.19;;;24.58;21.51
65359;BME280;52491;45.900;6.346;2023-02-16T12:46:11;94764.97;;;24.56;21.67
65359;BME280;52491;45.900;6.346;2023-02-16T12:51:24;94756.50;;;24.59;21.90
65359;BME280;52491;45.900;6.346;2023-02-16T12:54:00;94757.03;;;24.61;21.93
65359;BME280;52491;45.900;6.346;2023-02-16T12:56:38;94751.47;;;24.63;21.57
65359;BME280;52491;45.900;6.346;2023-02-16T13:02:21;94738.72;;;24.65;21.53
65359;BME280;52491;45.900;6.346;2023-02-16T13:04:55;94738.72;;;24.65;21.73
65359;BME280;52491;45.900;6.346;2023-02-16T13:10:03;94731.63;;;24.70;21.59
65359;BME280;52491;45.900;6.346;2023-02-16T13:12:41;94732.41;;;24.71;21.56
65359;BME280;52491;45.900;6.346;2023-02-16T13:15:20;94737.50;;;24.72;21.93
65359;BME280;52491;45.900;6.346;2023-02-16T13:17:54;94731.34;;;24.72;21.79
65359;BME280;52491;45.900;6.346;2023-02-16T13:20:22;94728.47;;;24.73;21.83
65359;BME280;52491;45.900;6.346;2023-02-16T13:26:10;94723.44;;;24.77;21.53
65359;BME280;52491;45.900;6.346;2023-02-16T13:42:57;94703.47;;;24.79;21.84
65359;BME280;52491;45.900;6.346;2023-02-16T13:45:30;94706.38;;;24.78;21.90
65359;BME280;52491;45.900;6.346;2023-02-16T13:47:57;94703.47;;;24.79;21.63
65359;BME280;52491;45.900;6.346;2023-02-16T13:50:29;94702.97;;;24.83;21.91
65359;BME280;52491;45.900;6.346;2023-02-16T13:53:07;94707.25;;;24.84;21.74
65359;BME280;52491;45.900;6.346;2023-02-16T13:55:36;94695.56;;;24.85;21.61
65359;BME280;52491;45.900;6.346;2023-02-16T14:00:46;94698.53;;;24.88;21.50
65359;BME280;52491;45.900;6.346;2023-02-16T14:05:44;94697.47;;;24.89;21.65
65359;BME280;52491;45.900;6.346;2023-02-16T14:16:08;94681.22;;;24.91;21.77
65359;BME280;52491;45.900;6.346;2023-02-16T14:18:41;94683.88;;;24.91;21.73
65359;BME280;52491;45.900;6.346;2023-02-16T14:21:41;94684.47;;;24.93;21.91
65359;BME280;52491;45.900;6.346;2023-02-16T14:24:31;94678.28;;;24.92;21.76
65359;BME280;52491;45.900;6.346;2023-02-16T14:27:00;94687.13;;;24.93;21.55
65359;BME280;52491;45.900;6.346;2023-02-16T14:29:31;94691.13;;;24.95;22.15
65359;BME280;52491;45.900;6.346;2023-02-16T14:34:54;94691.13;;;24.95;21.99
65359;BME280;52491;45.900;6.346;2023-02-16T14:37:28;94693.81;;;24.95;21.66
65359;BME280;52491;45.900;6.346;2023-02-16T14:40:37;94697.31;;;24.96;21.99
65359;BME280;52491;45.900;6.346;2023-02-16T14:42:52;94700.50;;;24.98;21.61
65359;BME280;52491;45.900;6.346;2023-02-16T14:45:41;94698.41;;;25.00;21.92
65359;BME280;52491;45.900;6.346;2023-02-16T14:57:16;94700.28;;;24.99;21.73
65359;BME280;52491;45.900;6.346;2023-02-16T14:59:54;94703.75;;;25.00;21.95
65359;BME280;52491;45.900;6.346;2023-02-16T15:02:31;94705.91;;;25.03;21.73
65359;BME280;52491;45.900;6.346;2023-02-16T15:05:12;94696.31;;;25.02;21.87
65359;BME280;52491;45.900;6.346;2023-02-16T15:07:38;94708.59;;;25.03;21.93
65359;BME280;52491;45.900;6.346;2023-02-16T15:10:04;94706.72;;;25.04;21.93
65359;BME280;52491;45.900;6.346;2023-02-16T15:12:30;94709.38;;;25.04;21.65
65359;BME280;52491;45.900;6.346;2023-02-16T15:15:00;94721.19;;;25.08;21.58
65359;BME280;52491;45.900;6.346;2023-02-16T15:17:28;94720.94;;;25.09;21.84
65359;BME280;52491;45.900;6.346;2023-02-16T15:19:57;94715.88;;;25.08;21.75
65359;BME280;52491;45.900;6.346;2023-02-16T15:22:26;94720.94;;;25.09;21.71
65359;BME280;52491;45.900;6.346;2023-02-16T15:25:06;94722.31;;;25.12;21.83
65359;BME280;52491;45.900;6.346;2023-02-16T15:27:51;94721.03;;;25.14;21.79
65359;BME280;52491;45.900;6.346;2023-02-16T15:30:22;94712.00;;;25.15;21.82